Time;durP1;ratioP1;P1;durP2;ratioP2;P2;SDS_P1;SDS_P2;PMS_P1;PMS_P2;Temp;Humidity;BMP_temperature;BMP_pressure;BME280_temperature;BME280_humidity;BME280_pressure;Samples;Min_cycle;Max_cycle;Signal;HPM_P1;HPM_P2
2021/12/25 00:01:25;;;;;;;2.78;0.70;;;18.90;42.90;;;;;;5052360;28;20348;-88
2021/12/25 00:03:54;;;;;;;1.55;0.70;;;18.90;42.90;;;;;;5051526;28;20021;-89
2021/12/25 00:06:20;;;;;;;1.90;0.60;;;18.80;42.90;;;;;;5051132;28;20478;-89
2021/12/25 00:08:46;;;;;;;1.17;0.80;;;18.80;42.90;;;;;;5051174;28;20043;-89
2021/12/25 00:11:13;;;;;;;2.83;0.90;;;18.80;43.00;;;;;;5052229;28;20386;-90
2021/12/25 00:13:41;;;;;;;2.10;0.80;;;18.70;42.90;;;;;;5052393;28;20053;-89
2021/12/25 00:16:07;;;;;;;1.40;0.65;;;18.70;42.90;;;;;;5051958;28;20029;-89
2021/12/25 00:18:35;;;;;;;2.67;0.70;;;18.70;43.00;;;;;;5052305;28;20492;-88
2021/12/25 00:21:00;;;;;;;2.58;0.88;;;18.70;44.00;;;;;;5052234;28;20033;-88
2021/12/25 00:23:26;;;;;;;1.95;0.88;;;18.60;43.00;;;;;;5051077;28;20036;-89
2021/12/25 00:25:58;;;;;;;1.58;0.80;;;18.60;43.00;;;;;;5050996;28;20044;-88
2021/12/25 00:31:22;;;;;;;2.53;0.80;;;18.50;43.10;;;;;;5052374;28;20171;-89
2021/12/25 00:33:52;;;;;;;1.90;0.77;;;18.50;44.00;;;;;;5051828;28;20051;-89
2021/12/25 00:36:20;;;;;;;1.30;0.63;;;18.50;43.10;;;;;;5053483;28;20066;-89
2021/12/25 00:38:47;;;;;;;1.50;0.60;;;18.40;43.10;;;;;;5056101;28;20547;-89
2021/12/25 00:41:15;;;;;;;1.75;0.63;;;18.40;43.10;;;;;;5054832;28;20029;-88
2021/12/25 00:43:41;;;;;;;3.10;0.60;;;18.40;43.10;;;;;;5054601;28;20518;-88
2021/12/25 00:46:07;;;;;;;1.98;0.65;;;18.40;43.20;;;;;;5056039;28;20096;-88
2021/12/25 00:48:33;;;;;;;2.20;0.80;;;18.40;43.10;;;;;;5054864;28;20103;-89
2021/12/25 00:50:59;;;;;;;1.83;0.70;;;18.30;43.10;;;;;;5054580;28;20151;-88
2021/12/25 00:53:24;;;;;;;1.55;0.50;;;18.30;43.10;;;;;;5054612;28;20116;-88
2021/12/25 00:55:50;;;;;;;3.30;0.65;;;18.30;44.20;;;;;;5054448;28;20170;-88
2021/12/25 00:58:16;;;;;;;2.58;0.70;;;18.30;43.20;;;;;;5054581;28;20098;-88
2021/12/25 01:00:43;;;;;;;1.65;0.57;;;18.20;43.10;;;;;;5055866;28;20110;-88
2021/12/25 01:03:08;;;;;;;2.10;0.80;;;18.20;43.10;;;;;;5054320;28;20025;-87
2021/12/25 01:05:34;;;;;;;2.22;0.50;;;18.20;43.10;;;;;;5054793;28;20180;-89
2021/12/25 01:08:00;;;;;;;1.58;0.60;;;18.20;43.10;;;;;;5054389;28;20475;-88
2021/12/25 01:10:25;;;;;;;2.67;0.82;;;18.10;43.10;;;;;;5055628;28;20033;-88
2021/12/25 01:13:03;;;;;;;1.02;0.50;;;18.10;43.10;;;;;;5054156;28;20035;-88
2021/12/25 01:49:07;;;;;;;0.65;0.40;;;17.70;43.10;;;;;;5054896;28;20402;-88
2021/12/25 01:51:33;;;;;;;1.35;0.65;;;17.70;43.20;;;;;;5053398;28;20474;-88
2021/12/25 01:53:58;;;;;;;2.25;0.55;;;17.70;43.10;;;;;;5054747;28;20083;-88
2021/12/25 01:56:24;;;;;;;1.70;0.50;;;17.70;43.10;;;;;;5054620;28;20021;-88
2021/12/25 01:58:50;;;;;;;1.73;0.50;;;17.60;42.90;;;;;;5054505;28;20110;-88
2021/12/25 02:01:15;;;;;;;1.60;0.50;;;17.60;42.90;;;;;;5054643;28;20021;-89
2021/12/25 02:03:41;;;;;;;1.00;0.50;;;17.60;43.00;;;;;;5053245;28;20172;-88
2021/12/25 02:06:10;;;;;;;1.75;0.60;;;17.60;43.00;;;;;;5053320;28;20040;-88
2021/12/25 02:08:39;;;;;;;1.00;0.50;;;17.60;43.10;;;;;;5054398;28;20490;-88
2021/12/25 02:11:06;;;;;;;1.85;0.50;;;17.50;43.10;;;;;;5054443;28;20037;-87
2021/12/25 02:13:32;;;;;;;0.98;0.35;;;17.50;43.10;;;;;;5053199;28;20029;-88
2021/12/25 02:15:59;;;;;;;1.08;0.50;;;17.50;43.10;;;;;;5052963;28;20035;-88
2021/12/25 02:18:58;;;;;;;1.38;0.57;;;17.50;43.10;;;;;;5053165;28;20025;-88
2021/12/25 02:21:31;;;;;;;0.93;0.47;;;17.40;43.00;;;;;;5054024;28;20024;-88
2021/12/25 02:23:57;;;;;;;1.05;0.47;;;17.40;43.00;;;;;;5052945;28;20108;-89
2021/12/25 02:26:24;;;;;;;1.55;0.40;;;17.40;43.00;;;;;;5054023;28;20104;-88
2021/12/25 02:28:50;;;;;;;1.42;0.60;;;17.30;42.90;;;;;;5054129;28;20083;-88
2021/12/25 02:31:16;;;;;;;1.60;0.50;;;17.30;43.00;;;;;;5052625;28;20021;-89
2021/12/25 02:33:44;;;;;;;1.13;0.40;;;17.30;42.90;;;;;;5052838;28;20128;-89
2021/12/25 02:36:11;;;;;;;1.15;0.40;;;17.30;43.00;;;;;;5053800;28;20104;-88
2021/12/25 02:38:37;;;;;;;0.80;0.40;;;17.30;42.90;;;;;;5052626;28;20025;-88
2021/12/25 02:41:04;;;;;;;1.42;0.40;;;17.20;42.90;;;;;;5053831;28;20104;-88
2021/12/25 02:43:31;;;;;;;1.20;0.40;;;17.20;43.00;;;;;;5053835;28;20104;-88
2021/12/25 02:46:02;;;;;;;1.52;0.40;;;17.20;42.90;;;;;;5054146;28;20052;-87
2021/12/25 02:48:28;;;;;;;2.15;0.28;;;17.20;42.90;;;;;;5053475;28;20088;-87
2021/12/25 02:50:53;;;;;;;1.27;0.32;;;17.20;42.70;;;;;;5053708;28;20556;-88
2021/12/25 02:53:19;;;;;;;1.90;0.40;;;17.10;42.50;;;;;;5052208;28;20065;-88
2021/12/25 02:55:45;;;;;;;1.98;0.40;;;17.10;42.40;;;;;;5052276;28;20036;-88
2021/12/25 02:58:12;;;;;;;1.40;0.40;;;17.10;42.60;;;;;;5051898;28;20021;-88
2021/12/25 03:00:49;;;;;;;1.52;0.40;;;17.10;42.80;;;;;;5051941;28;20029;-88
2021/12/25 03:03:15;;;;;;;1.90;0.50;;;17.10;42.80;;;;;;5053151;28;20032;-88
2021/12/25 03:05:41;;;;;;;0.82;0.38;;;17.00;42.80;;;;;;5052128;28;20025;-87
2021/12/25 03:08:09;;;;;;;0.90;0.47;;;17.00;42.80;;;;;;5051947;28;20025;-88
2021/12/25 03:10:36;;;;;;;0.93;0.40;;;17.00;42.90;;;;;;5053276;28;20478;-88
2021/12/25 03:15:46;;;;;;;1.95;0.40;;;17.00;42.90;;;;;;5053323;28;20436;-88
2021/12/25 03:18:16;;;;;;;1.00;0.35;;;16.90;42.90;;;;;;5053003;28;20025;-88
2021/12/25 03:20:46;;;;;;;1.20;0.40;;;16.90;43.00;;;;;;5051743;28;20497;-88
2021/12/25 03:23:18;;;;;;;0.85;0.50;;;16.90;43.10;;;;;;5053078;28;20025;-88
2021/12/25 03:25:45;;;;;;;1.17;0.40;;;16.90;43.00;;;;;;5052942;28;20032;-89
2021/12/25 03:28:11;;;;;;;1.15;0.40;;;16.90;43.10;;;;;;5052804;28;20049;-88
2021/12/25 03:30:39;;;;;;;1.08;0.40;;;16.80;43.10;;;;;;5053069;28;20060;-87
2021/12/25 03:33:07;;;;;;;0.70;0.30;;;16.80;43.10;;;;;;5052699;28;20060;-88
2021/12/25 03:35:34;;;;;;;1.02;0.30;;;16.80;43.20;;;;;;5052833;28;20053;-88
2021/12/25 03:38:01;;;;;;;0.47;0.30;;;16.80;43.30;;;;;;5052498;28;20127;-88
2021/12/25 03:40:28;;;;;;;0.40;0.30;;;16.80;43.30;;;;;;5051466;28;20017;-87
2021/12/25 03:42:54;;;;;;;1.20;0.50;;;16.80;43.40;;;;;;5052358;28;20017;-88
2021/12/25 03:45:20;;;;;;;1.73;0.60;;;16.70;43.40;;;;;;5052713;28;20417;-88
2021/12/25 03:47:47;;;;;;;0.98;0.30;;;16.70;43.40;;;;;;5052574;28;20032;-87
2021/12/25 03:58:20;;;;;;;0.68;0.30;;;16.60;43.60;;;;;;5052843;28;20056;-88
2021/12/25 04:00:48;;;;;;;2.00;0.32;;;16.60;43.70;;;;;;5051159;28;20074;-88
2021/12/25 04:03:43;;;;;;;1.08;0.40;;;16.60;43.70;;;;;;5052565;28;20471;-87
2021/12/25 04:06:10;;;;;;;0.85;0.40;;;16.50;43.70;;;;;;5052247;28;20029;-88
2021/12/25 04:08:45;;;;;;;0.82;0.35;;;16.50;43.80;;;;;;5052403;28;20070;-87
2021/12/25 04:11:26;;;;;;;1.60;0.40;;;16.50;43.90;;;;;;5052227;28;20020;-88
2021/12/25 04:13:52;;;;;;;0.57;0.30;;;16.50;43.90;;;;;;5050903;28;20079;-88
2021/12/25 04:16:17;;;;;;;1.42;0.55;;;16.50;43.90;;;;;;5052213;28;20025;-88
2021/12/25 04:18:43;;;;;;;0.90;0.32;;;16.50;44.00;;;;;;5052029;28;20425;-87
2021/12/25 04:21:08;;;;;;;0.70;0.35;;;16.40;44.00;;;;;;5052073;28;20043;-88
2021/12/25 04:23:38;;;;;;;1.15;0.30;;;16.40;44.00;;;;;;5051012;28;20542;-88
2021/12/25 04:26:03;;;;;;;1.60;0.30;;;16.40;44.10;;;;;;5052136;28;20028;-87
2021/12/25 04:31:28;;;;;;;1.00;0.35;;;16.40;44.20;;;;;;5051943;28;20052;-88
2021/12/25 04:49:01;;;;;;;0.90;0.30;;;16.30;44.30;;;;;;5051952;28;20032;-87
2021/12/25 05:02:06;;;;;;;0.90;0.40;;;16.20;44.30;;;;;;5050532;28;20032;-87
2021/12/25 05:04:14;;;;;;;1.65;0.30;;;16.10;44.30;;;;;;5049446;28;20116;-88
2021/12/25 05:06:40;;;;;;;1.13;0.40;;;16.10;44.30;;;;;;5051211;28;20071;-88
2021/12/25 05:09:05;;;;;;;1.27;0.30;;;16.10;44.30;;;;;;5051674;28;20032;-87
2021/12/25 05:11:31;;;;;;;1.05;0.22;;;16.10;44.30;;;;;;5051751;28;20021;-87
2021/12/25 05:13:57;;;;;;;1.02;0.20;;;16.10;44.30;;;;;;5051415;28;20412;-87
2021/12/25 05:16:22;;;;;;;1.30;0.38;;;16.10;44.30;;;;;;5051599;28;20028;-88
2021/12/25 05:18:50;;;;;;;1.80;0.40;;;16.10;44.20;;;;;;5051292;28;20026;-88
2021/12/25 05:21:18;;;;;;;1.08;0.20;;;16.10;44.20;;;;;;5050342;28;20028;-87
2021/12/25 05:23:44;;;;;;;0.40;0.30;;;16.10;44.30;;;;;;5055099;28;20360;-88
2021/12/25 05:26:09;;;;;;;0.60;0.30;;;16.00;44.20;;;;;;5055161;28;20090;-88
2021/12/25 05:28:46;;;;;;;0.55;0.30;;;16.00;44.20;;;;;;5055416;28;20036;-88
2021/12/25 05:31:14;;;;;;;0.40;0.17;;;16.00;44.10;;;;;;5055027;28;20021;-88
2021/12/25 05:33:42;;;;;;;1.08;0.40;;;16.00;44.10;;;;;;5055054;28;20037;-86
2021/12/25 05:36:08;;;;;;;0.47;0.20;;;15.90;44.10;;;;;;5055075;28;20047;-88
2021/12/25 05:38:35;;;;;;;1.00;0.38;;;15.90;44.10;;;;;;5055176;28;20529;-87
2021/12/25 05:41:02;;;;;;;0.50;0.22;;;15.90;44.10;;;;;;5054709;28;20029;-88
2021/12/25 05:43:28;;;;;;;0.60;0.28;;;15.90;44.10;;;;;;5054994;28;20535;-87
2021/12/25 05:45:54;;;;;;;0.65;0.30;;;15.90;44.20;;;;;;5054741;28;20103;-87
2021/12/25 05:48:20;;;;;;;1.50;0.35;;;15.90;44.20;;;;;;5054579;28;20092;-88
2021/12/25 05:50:46;;;;;;;1.08;0.45;;;15.90;44.00;;;;;;5053599;28;20024;-88
2021/12/25 05:53:12;;;;;;;0.68;0.30;;;15.90;44.00;;;;;;5054585;28;20033;-87
2021/12/25 05:55:37;;;;;;;0.47;0.22;;;15.90;44.00;;;;;;5054849;28;20036;-87
2021/12/25 05:58:07;;;;;;;1.52;0.20;;;15.80;43.90;;;;;;5054381;28;20029;-88
2021/12/25 06:00:34;;;;;;;0.85;0.32;;;15.80;44.00;;;;;;5053628;28;20036;-87
2021/12/25 06:02:59;;;;;;;0.50;0.20;;;15.80;44.00;;;;;;5054326;28;20017;-87
2021/12/25 06:05:26;;;;;;;0.43;0.22;;;15.80;44.00;;;;;;5054692;28;21073;-87
2021/12/25 06:07:52;;;;;;;0.88;0.30;;;15.80;44.00;;;;;;5053041;28;20095;-88
2021/12/25 06:10:17;;;;;;;0.80;0.40;;;15.70;44.00;;;;;;5053103;28;20060;-88
2021/12/25 06:12:47;;;;;;;0.95;0.30;;;15.70;44.00;;;;;;5054475;28;20025;-88
2021/12/25 06:15:14;;;;;;;1.20;0.30;;;15.70;43.80;;;;;;5052814;28;20111;-87
2021/12/25 06:17:40;;;;;;;0.95;0.30;;;15.70;43.60;;;;;;5054309;28;20017;-87
2021/12/25 06:20:07;;;;;;;0.90;0.30;;;15.70;43.50;;;;;;5052840;28;20052;-87
2021/12/25 06:22:33;;;;;;;1.00;0.30;;;15.80;43.60;;;;;;5054329;28;20083;-88
2021/12/25 06:24:59;;;;;;;1.30;0.20;;;15.80;43.60;;;;;;5054052;28;20382;-87
2021/12/25 06:27:25;;;;;;;0.73;0.20;;;15.80;43.60;;;;;;5054109;28;20100;-87
2021/12/25 06:29:51;;;;;;;0.90;0.32;;;15.90;43.50;;;;;;5054092;28;20564;-87
2021/12/25 06:32:18;;;;;;;1.33;0.40;;;16.00;43.50;;;;;;5052680;28;20025;-87
2021/12/25 06:34:44;;;;;;;0.40;0.20;;;16.10;43.30;;;;;;5052811;28;20037;-87
2021/12/25 06:37:10;;;;;;;0.40;0.20;;;16.10;43.20;;;;;;5053590;28;20031;-87
2021/12/25 06:39:36;;;;;;;0.70;0.22;;;16.30;42.90;;;;;;5053868;28;20044;-88
2021/12/25 06:42:02;;;;;;;1.60;0.30;;;16.40;42.80;;;;;;5052513;28;20017;-87
2021/12/25 06:44:28;;;;;;;0.73;0.10;;;16.50;42.70;;;;;;5052531;28;20478;-87
2021/12/25 06:46:57;;;;;;;0.70;0.25;;;16.70;42.50;;;;;;5053822;28;20033;-87
2021/12/25 06:49:24;;;;;;;0.73;0.30;;;16.80;42.40;;;;;;5053338;28;20052;-88
2021/12/25 06:51:51;;;;;;;0.85;0.40;;;17.00;42.20;;;;;;5053846;28;20096;-87
2021/12/25 06:54:17;;;;;;;0.50;0.25;;;17.10;42.00;;;;;;5053499;28;20111;-88
2021/12/25 06:56:47;;;;;;;0.50;0.30;;;17.30;41.80;;;;;;5052342;28;20021;-89
2021/12/25 06:59:13;;;;;;;0.47;0.20;;;17.50;41.50;;;;;;5053477;28;20017;-87
2021/12/25 07:01:40;;;;;;;0.45;0.30;;;17.70;41.20;;;;;;5052410;28;20049;-87
2021/12/25 07:04:07;;;;;;;1.63;0.20;;;17.90;41.10;;;;;;5052263;28;20474;-88
2021/12/25 07:06:36;;;;;;;0.20;0.13;;;18.00;40.90;;;;;;5052202;28;20021;-88
2021/12/25 07:09:04;;;;;;;0.82;0.20;;;18.20;40.70;;;;;;5051994;28;20052;-87
2021/12/25 07:11:29;;;;;;;0.88;0.35;;;18.40;40.50;;;;;;5053363;28;20021;-88
2021/12/25 07:13:56;;;;;;;1.95;0.45;;;18.60;40.30;;;;;;5053526;28;20035;-87
2021/12/25 07:16:22;;;;;;;0.73;0.30;;;18.70;40.10;;;;;;5052988;28;20017;-87
2021/12/25 07:18:47;;;;;;;0.75;0.30;;;18.90;39.80;;;;;;5053241;28;20094;-88
2021/12/25 07:21:13;;;;;;;0.57;0.30;;;19.00;39.60;;;;;;5052994;28;20104;-87
2021/12/25 07:23:39;;;;;;;0.80;0.40;;;19.10;39.30;;;;;;5053172;28;20073;-87
2021/12/25 07:26:04;;;;;;;1.90;0.28;;;19.30;39.10;;;;;;5051823;28;20501;-87
2021/12/25 07:28:31;;;;;;;3.40;0.40;;;19.40;38.80;;;;;;5052885;28;20025;-88
2021/12/25 07:31:00;;;;;;;0.93;0.40;;;19.50;38.60;;;;;;5052999;28;20084;-87
2021/12/25 07:33:26;;;;;;;0.70;0.20;;;19.60;38.30;;;;;;5052844;28;20029;-88
2021/12/25 07:35:52;;;;;;;3.25;0.40;;;19.60;38.20;;;;;;5051560;28;20510;-87
2021/12/25 07:38:18;;;;;;;2.65;0.20;;;19.70;38.00;;;;;;5052633;28;20399;-88
2021/12/25 07:40:45;;;;;;;0.85;0.20;;;19.80;38.00;;;;;;5051582;28;20025;-87
2021/12/25 07:43:10;;;;;;;0.60;0.30;;;19.80;37.90;;;;;;5052684;28;20021;-88
2021/12/25 07:45:36;;;;;;;1.55;0.30;;;19.80;37.90;;;;;;5052465;28;20032;-88
2021/12/25 07:48:03;;;;;;;4.00;0.50;;;19.80;37.90;;;;;;5051324;28;20029;-89
2021/12/25 07:50:31;;;;;;;1.67;0.60;;;19.80;37.90;;;;;;5052485;28;20029;-89
2021/12/25 07:52:58;;;;;;;1.92;0.40;;;19.90;38.00;;;;;;5052729;28;20028;-88
2021/12/25 07:55:24;;;;;;;1.70;0.43;;;19.90;38.00;;;;;;5052305;28;20082;-88
2021/12/25 07:57:49;;;;;;;2.70;0.40;;;19.90;38.10;;;;;;5052673;28;20485;-89
2021/12/25 08:00:16;;;;;;;2.72;0.50;;;19.80;38.10;;;;;;5052814;28;20100;-90
2021/12/25 08:02:44;;;;;;;2.35;0.40;;;19.80;38.20;;;;;;5052554;28;20075;-89
2021/12/25 08:05:11;;;;;;;1.42;0.38;;;19.90;38.30;;;;;;5052585;28;20025;-88
2021/12/25 08:07:36;;;;;;;2.85;0.60;;;19.90;38.40;;;;;;5052364;28;20035;-88
2021/12/25 08:10:13;;;;;;;5.93;0.70;;;19.90;38.50;;;;;;5052576;28;20104;-89
2021/12/25 08:12:45;;;;;;;4.03;0.45;;;19.80;38.50;;;;;;5051279;28;20025;-88
2021/12/25 08:15:12;;;;;;;2.22;0.52;;;19.80;38.50;;;;;;5052294;28;20029;-88
2021/12/25 08:17:38;;;;;;;4.25;0.50;;;19.80;38.60;;;;;;5051117;28;20060;-88
2021/12/25 08:20:05;;;;;;;3.00;0.65;;;19.80;38.60;;;;;;5050983;28;20025;-87
2021/12/25 08:22:31;;;;;;;0.93;0.40;;;19.80;38.70;;;;;;5043448;28;20510;-88
2021/12/25 08:24:57;;;;;;;8.65;0.70;;;19.80;38.80;;;;;;5048668;28;20072;-92
2021/12/25 08:27:22;;;;;;;4.93;0.50;;;19.80;38.90;;;;;;5077387;28;20471;-90
2021/12/25 08:29:48;;;;;;;6.53;0.57;;;19.80;39.00;;;;;;5052486;28;20524;-91
2021/12/25 08:32:14;;;;;;;6.25;0.80;;;19.80;39.00;;;;;;5034926;28;20036;-88
2021/12/25 08:34:40;;;;;;;4.45;0.60;;;19.80;39.10;;;;;;5029591;28;20029;-90
2021/12/25 08:37:06;;;;;;;4.10;0.90;;;19.80;39.20;;;;;;5031307;28;20048;-93
2021/12/25 08:39:32;;;;;;;3.13;0.57;;;19.80;39.20;;;;;;5064597;28;20487;-88
2021/12/25 08:42:03;;;;;;;3.10;0.50;;;19.80;39.20;;;;;;5031337;28;20028;-90
2021/12/25 08:44:52;;;;;;;1.65;0.70;;;19.80;39.30;;;;;;5064875;28;20056;-92
2021/12/25 08:47:19;;;;;;;3.47;0.70;;;19.80;39.40;;;;;;5032512;28;20026;-90
2021/12/25 08:49:45;;;;;;;2.63;0.60;;;19.80;39.40;;;;;;5065063;28;20054;-90
2021/12/25 08:52:15;;;;;;;2.20;0.63;;;19.90;39.40;;;;;;5064626;28;20028;-90
2021/12/25 08:54:42;;;;;;;4.43;0.63;;;19.90;40.30;;;;;;5064564;28;20068;-92
2021/12/25 08:57:09;;;;;;;3.28;0.70;;;20.00;39.40;;;;;;5065721;28;20022;-92
2021/12/25 08:59:36;;;;;;;4.32;0.60;;;19.90;39.30;;;;;;5036492;28;20026;-94
2021/12/25 09:02:04;;;;;;;3.88;0.75;;;20.00;39.30;;;;;;5038737;28;20018;-94
2021/12/25 09:04:31;;;;;;;3.15;0.68;;;20.10;39.30;;;;;;5068472;28;20029;-93
2021/12/25 09:06:57;;;;;;;2.97;0.60;;;20.10;39.30;;;;;;5035394;28;20029;-93
2021/12/25 09:09:22;;;;;;;5.18;0.68;;;20.20;39.30;;;;;;5068526;28;20048;-92
2021/12/25 09:11:48;;;;;;;2.50;0.68;;;20.20;39.20;;;;;;5036268;28;20029;-91
2021/12/25 09:14:14;;;;;;;2.38;0.80;;;20.30;39.10;;;;;;5034754;28;20088;-90
2021/12/25 09:16:40;;;;;;;2.88;0.85;;;20.30;39.00;;;;;;5068310;28;20057;-91
2021/12/25 09:19:06;;;;;;;3.08;0.55;;;20.40;39.00;;;;;;5068265;28;20071;-93
2021/12/25 09:21:32;;;;;;;2.05;0.98;;;20.40;38.90;;;;;;5068346;28;20024;-92
2021/12/25 09:23:58;;;;;;;1.85;0.70;;;20.50;38.80;;;;;;5035964;28;20017;-92
2021/12/25 09:26:24;;;;;;;2.38;0.70;;;20.50;38.80;;;;;;5034858;28;20025;-92
2021/12/25 09:28:50;;;;;;;3.97;0.77;;;20.60;38.80;;;;;;5067997;28;20021;-91
2021/12/25 09:31:16;;;;;;;2.70;0.75;;;20.60;38.70;;;;;;5067595;28;20176;-88
2021/12/25 09:33:42;;;;;;;1.75;0.60;;;20.70;38.60;;;;;;5035102;28;20382;-89
2021/12/25 09:36:07;;;;;;;3.25;0.77;;;20.70;38.50;;;;;;5067046;28;20116;-87
2021/12/25 09:38:35;;;;;;;4.65;0.75;;;20.70;38.40;;;;;;5067353;28;20030;-86
2021/12/25 09:41:02;;;;;;;6.85;1.10;;;20.70;38.30;;;;;;5034478;28;20033;-89
2021/12/25 09:43:29;;;;;;;14.32;1.08;;;20.80;38.40;;;;;;5067047;28;20406;-91
2021/12/25 09:45:57;;;;;;;5.90;0.95;;;20.70;38.30;;;;;;5067036;28;20022;-90
2021/12/25 09:48:23;;;;;;;8.40;1.30;;;20.80;38.40;;;;;;5067097;28;20073;-86
2021/12/25 09:50:49;;;;;;;11.02;0.95;;;20.80;38.50;;;;;;5036712;28;20538;-89
2021/12/25 09:53:18;;;;;;;11.98;1.20;;;20.80;38.60;;;;;;5033828;28;20422;-87
2021/12/25 09:55:44;;;;;;;14.05;1.73;;;20.90;39.80;;;;;;5066545;28;20029;-89
2021/12/25 09:58:10;;;;;;;16.58;2.10;;;20.90;38.90;;;;;;5050223;28;20144;-91
2021/12/25 10:00:42;;;;;;;17.73;1.80;;;20.90;39.00;;;;;;5033588;28;20079;-88
2021/12/25 10:03:07;;;;;;;15.52;1.80;;;20.90;39.20;;;;;;5067160;28;20021;-90
2021/12/25 10:05:41;;;;;;;13.15;1.52;;;20.80;39.40;;;;;;5067270;28;20021;-87
2021/12/25 10:08:20;;;;;;;12.32;1.40;;;20.90;39.50;;;;;;5034746;28;20018;-90
2021/12/25 10:10:51;;;;;;;15.05;1.70;;;20.90;39.60;;;;;;5066966;28;20121;-90
2021/12/25 10:13:25;;;;;;;17.00;1.73;;;20.90;39.60;;;;;;5067350;28;20029;-91
2021/12/25 10:23:15;;;;;;;15.27;1.33;;;20.90;40.00;;;;;;4973911;28;20084;-90
2021/12/25 10:25:45;;;;;;;12.27;1.08;;;20.80;40.00;;;;;;5066399;28;20018;-92
2021/12/25 10:28:12;;;;;;;13.73;1.20;;;20.90;40.10;;;;;;5034472;28;20033;-94
2021/12/25 10:30:48;;;;;;;17.77;1.73;;;20.90;40.20;;;;;;5033307;28;20387;-91
2021/12/25 10:33:32;;;;;;;15.65;1.75;;;20.90;40.40;;;;;;5034528;28;20451;-90
2021/12/25 10:36:03;;;;;;;22.42;1.65;;;20.90;40.60;;;;;;5066388;28;20053;-92
2021/12/25 10:38:30;;;;;;;16.00;1.60;;;20.90;40.70;;;;;;5033696;28;20018;-92
2021/12/25 10:41:17;;;;;;;10.60;1.58;;;20.90;40.90;;;;;;5066659;28;20116;-92
2021/12/25 10:43:43;;;;;;;14.75;1.30;;;20.90;41.00;;;;;;5066336;28;20028;-90
2021/12/25 10:46:09;;;;;;;19.90;2.00;;;20.90;41.10;;;;;;5066697;28;20033;-90
2021/12/25 10:48:36;;;;;;;17.73;1.67;;;20.90;41.20;;;;;;5034166;28;20398;-90
2021/12/25 10:51:02;;;;;;;7.95;1.20;;;20.90;41.20;;;;;;5033150;28;20029;-93
2021/12/25 10:53:37;;;;;;;12.95;1.48;;;20.90;41.30;;;;;;5066680;28;20136;-91
2021/12/25 10:56:12;;;;;;;10.30;1.40;;;20.90;41.40;;;;;;5066153;28;20025;-91
2021/12/25 10:58:39;;;;;;;13.55;1.23;;;20.90;41.50;;;;;;5066423;28;20037;-93
2021/12/25 11:01:07;;;;;;;9.55;1.20;;;20.90;41.50;;;;;;5034352;28;20024;-92
2021/12/25 11:03:35;;;;;;;10.68;1.23;;;21.00;41.50;;;;;;5032783;28;20021;-91
2021/12/25 11:06:07;;;;;;;10.43;1.08;;;21.00;41.70;;;;;;5033567;28;20033;-91
2021/12/25 11:08:33;;;;;;;10.45;1.10;;;21.00;41.70;;;;;;5033081;28;20026;-95
2021/12/25 11:11:06;;;;;;;8.65;1.50;;;21.00;41.70;;;;;;5033902;28;20029;-90
2021/12/25 11:13:45;;;;;;;9.38;1.50;;;21.00;41.40;;;;;;5066023;28;20028;-88
2021/12/25 11:16:31;;;;;;;7.57;1.17;;;21.00;41.10;;;;;;5032376;28;20026;-90
2021/12/25 11:19:05;;;;;;;5.10;1.13;;;21.00;40.90;;;;;;5065634;28;20076;-91
2021/12/25 11:21:51;;;;;;;10.32;1.10;;;21.00;40.70;;;;;;5065615;28;20025;-89
2021/12/25 11:24:31;;;;;;;9.05;1.70;;;21.00;40.60;;;;;;5029200;28;20034;-89
2021/12/25 11:26:59;;;;;;;10.43;1.52;;;21.00;40.70;;;;;;5038033;28;20036;-91
2021/12/25 11:29:28;;;;;;;7.38;1.15;;;20.90;40.60;;;;;;5052078;28;20021;-92
2021/12/25 11:31:55;;;;;;;7.53;1.20;;;20.90;40.60;;;;;;5052667;28;20356;-91
2021/12/25 11:34:22;;;;;;;12.77;1.50;;;20.90;40.60;;;;;;5052969;28;20025;-91
2021/12/25 11:36:51;;;;;;;10.30;1.23;;;20.90;40.80;;;;;;5052283;28;20029;-89
2021/12/25 11:39:20;;;;;;;13.55;1.60;;;20.90;41.00;;;;;;5052830;28;20025;-90
2021/12/25 11:41:47;;;;;;;13.80;1.75;;;20.90;41.10;;;;;;5052723;28;20029;-87
2021/12/25 11:44:32;;;;;;;12.50;1.33;;;20.90;41.20;;;;;;5051976;28;20107;-88
2021/12/25 11:47:00;;;;;;;13.68;1.40;;;21.00;41.30;;;;;;5053049;28;20012;-89
2021/12/25 11:49:25;;;;;;;8.65;1.40;;;20.90;41.30;;;;;;5035478;28;20052;-89
2021/12/25 11:51:52;;;;;;;7.78;1.15;;;20.90;41.40;;;;;;5053260;28;20048;-90
2021/12/25 11:57:11;;;;;;;;;;;20.90;40.80;;;;;;5053264;28;20025;-90
2021/12/25 11:59:51;;;;;;;9.02;1.60;;;20.80;40.50;;;;;;5052120;28;19905;-93
2021/12/25 12:02:36;;;;;;;6.35;0.90;;;20.80;40.50;;;;;;5053413;28;20025;-89
2021/12/25 12:05:25;;;;;;;5.50;1.00;;;20.80;40.10;;;;;;5052688;28;20435;-89
2021/12/25 12:08:05;;;;;;;8.10;1.00;;;20.80;40.00;;;;;;5051652;28;20386;-89
2021/12/25 12:10:45;;;;;;;4.57;1.00;;;20.80;40.00;;;;;;5051978;28;20048;-91
2021/12/25 12:13:20;;;;;;;7.07;1.00;;;20.80;39.90;;;;;;5051742;28;20106;-91
2021/12/25 12:15:52;;;;;;;8.02;1.10;;;20.70;39.90;;;;;;5052569;28;20103;-92
2021/12/25 12:18:23;;;;;;;4.88;1.00;;;20.70;39.90;;;;;;5051787;28;20024;-92
2021/12/25 12:20:50;;;;;;;2.85;0.65;;;20.70;39.70;;;;;;5051707;28;20104;-91
2021/12/25 12:24:09;;;;;;;6.43;1.10;;;20.70;39.80;;;;;;5051650;28;20112;-92
2021/12/25 12:26:52;;;;;;;5.55;0.88;;;20.70;39.70;;;;;;5051826;28;20027;-88
2021/12/25 12:29:45;;;;;;;7.65;1.20;;;20.70;39.80;;;;;;5051881;28;20029;-92
2021/12/25 12:32:19;;;;;;;7.43;1.07;;;20.70;39.80;;;;;;5050765;28;20486;-92
2021/12/25 12:34:47;;;;;;;4.35;0.82;;;20.70;39.80;;;;;;5052830;28;20094;-89
2021/12/25 12:37:19;;;;;;;4.90;0.90;;;20.70;39.80;;;;;;5051468;28;20021;-93
2021/12/25 12:39:59;;;;;;;6.10;0.90;;;20.70;39.80;;;;;;5051609;28;20375;-89
2021/12/25 12:42:40;;;;;;;4.07;0.80;;;20.70;39.80;;;;;;5052805;28;20101;-92
2021/12/25 12:45:14;;;;;;;3.53;1.13;;;20.60;39.70;;;;;;5052540;28;20032;-90
2021/12/25 12:47:41;;;;;;;4.00;1.02;;;20.70;39.80;;;;;;5051490;28;20111;-88
2021/12/25 12:50:09;;;;;;;4.32;0.85;;;20.60;39.70;;;;;;5051302;28;20053;-89
2021/12/25 12:52:40;;;;;;;5.82;1.00;;;20.70;39.70;;;;;;5052851;28;20082;-91
2021/12/25 12:55:10;;;;;;;2.45;0.80;;;20.70;39.60;;;;;;5051237;28;20032;-90
2021/12/25 12:57:40;;;;;;;2.78;0.60;;;20.70;39.60;;;;;;5051395;28;20192;-93
2021/12/25 13:00:27;;;;;;;1.67;0.73;;;20.70;39.60;;;;;;5052474;28;20151;-95
2021/12/25 13:02:55;;;;;;;2.15;0.90;;;20.70;39.50;;;;;;5052683;28;20028;-94
2021/12/25 13:05:36;;;;;;;2.65;0.80;;;20.70;39.50;;;;;;5051070;28;20482;-94
2021/12/25 13:08:17;;;;;;;3.25;0.70;;;20.70;39.40;;;;;;5052384;28;20096;-88
2021/12/25 13:10:52;;;;;;;2.72;0.73;;;20.80;39.40;;;;;;5051533;28;20078;-91
2021/12/25 13:13:35;;;;;;;2.58;0.70;;;20.80;39.40;;;;;;5051349;28;20109;-89
2021/12/25 13:16:05;;;;;;;3.17;0.82;;;20.80;39.30;;;;;;5051189;28;20060;-89
2021/12/25 13:18:37;;;;;;;2.53;0.70;;;20.80;39.30;;;;;;5051154;28;20478;-87
2021/12/25 13:21:09;;;;;;;4.10;0.70;;;20.80;39.20;;;;;;5052492;28;20078;-91
2021/12/25 13:23:46;;;;;;;1.63;0.60;;;20.80;39.20;;;;;;5052104;28;20100;-90
2021/12/25 13:26:15;;;;;;;4.05;0.80;;;20.80;39.20;;;;;;5051102;28;20070;-91
2021/12/25 13:28:43;;;;;;;4.40;0.70;;;20.80;39.10;;;;;;5034508;28;20029;-91
2021/12/25 13:31:13;;;;;;;5.65;0.77;;;20.80;39.00;;;;;;5052024;28;20052;-89
2021/12/25 13:34:05;;;;;;;3.72;0.80;;;20.80;39.00;;;;;;5052294;28;20074;-89
2021/12/25 13:36:34;;;;;;;1.23;0.82;;;20.90;39.00;;;;;;5051266;28;20036;-92
2021/12/25 13:39:06;;;;;;;1.33;0.60;;;20.90;40.00;;;;;;5050824;28;20025;-91
2021/12/25 13:41:37;;;;;;;1.00;0.57;;;20.90;39.00;;;;;;5052268;28;20032;-87
2021/12/25 13:44:24;;;;;;;1.40;0.60;;;20.90;39.00;;;;;;5053048;28;20162;-91
2021/12/25 13:46:53;;;;;;;1.70;0.50;;;20.90;38.90;;;;;;5054469;28;20470;-89
2021/12/25 13:49:24;;;;;;;1.85;0.60;;;20.90;38.90;;;;;;5054017;28;20470;-92
2021/12/25 13:51:50;;;;;;;2.63;0.70;;;20.90;38.80;;;;;;5054456;28;20360;-91
2021/12/25 13:54:19;;;;;;;2.83;0.68;;;20.90;38.80;;;;;;5055568;28;20036;-90
2021/12/25 13:56:50;;;;;;;1.60;0.65;;;20.90;38.80;;;;;;5054330;28;20102;-93
2021/12/25 13:59:16;;;;;;;2.20;0.50;;;20.90;38.80;;;;;;5054275;28;20025;-92
2021/12/25 14:01:43;;;;;;;3.20;0.63;;;21.00;38.70;;;;;;5053982;28;20020;-92
2021/12/25 14:04:10;;;;;;;1.20;0.65;;;20.90;38.70;;;;;;5055284;28;20060;-91
2021/12/25 14:06:37;;;;;;;1.05;0.57;;;20.90;38.70;;;;;;5055208;28;20029;-90
2021/12/25 14:09:06;;;;;;;1.35;0.70;;;20.90;38.70;;;;;;5055167;28;20025;-90
2021/12/25 14:11:33;;;;;;;1.33;0.43;;;21.00;38.70;;;;;;5053943;28;20033;-92
2021/12/25 14:14:03;;;;;;;1.88;0.63;;;21.00;38.70;;;;;;5054035;28;20029;-91
2021/12/25 14:16:29;;;;;;;0.80;0.50;;;21.00;38.70;;;;;;5053718;28;20033;-91
2021/12/25 14:18:55;;;;;;;1.45;0.55;;;21.00;38.70;;;;;;5053876;28;20044;-95
2021/12/25 14:21:23;;;;;;;3.60;0.52;;;21.00;38.70;;;;;;5053920;28;20043;-92